Circleville, Ohio
Current Conditions -  °F | °C
As of 10:14 AM on Wednesday 22 Oct 2014 (Local Time) from KRZT Reporting Station
Overcast Overcast  
Wind Chill: 40°   Ceiling: 1300
Heat Index: 46°   Visibility: 10mi
Dew Point: 41°   Wind: 14mph
Humidity: 81%   Direction: 10°N
Pressure: 30.25"   Gusts: NA
Location:  39.6°N, 82.94°W
Report Text: KRZT 221414Z AUTO 01012KT 10SM OVC013 08/05 A3025 RMK AO2
Loading
Personal Weather Stations






























Interactive Weather Map
Tropical Storm Tracking
New forecast layout! Learn more

10-Day Weather Forecast

Advertisements
Track Severe Weather on mobile